Station info - map view · info · telemetry · weather · raw · status · beacons · messages · bulletins · browse · moving · my account
Callsign, ship name or locator: Clear       
It is possible to search using wildcards (*?) after a prefix. Example: OH*
APRS station KN6DKO-9 - show graphs
Map loading...
Mic-E message: En route
Location: 32°45.97' N 117°12.52' W - locator DM12JS43XV - show map - static map
4.6 miles Northwest bearing 320° from San Diego, San Diego County, California, United States [?]
5.7 miles North bearing 345° from Coronado, San Diego County, California, United States
21.7 miles Northwest bearing 327° from Tijuana, Baja California, Mexico
Last position: 2021-02-07 21:09:34 EST (19d 13h16m ago)
2021-02-07 18:09:34 PST local time at San Diego, United States [?]
Altitude: 10 ft
Course: 180°
Speed: 37 MPH
Device: Yaesu: FTM-400DR (rig)
Last path: KN6DKO-9>SR4UYW via WIDE1-1,WIDE2-1,qAO,W3SN-10 (good)
Positions stored: 9540
Stations near current position of KN6DKO-9 - show more
callsign distance last heard - EST      callsign distance last heard - EST
K6YR-90.6 miles 149°2021-02-17 10:01:54 EW15890.9 miles 297°2021-02-27 10:14:59
n6szo0.9 miles 2°2021-02-07 00:59:15 FW04951.0 miles 262°2021-02-27 10:16:40
KR6AUL-91.0 miles 204°2021-02-20 20:27:10 KJ6TIM-91.7 miles 232°2021-02-13 23:57:06
W6EBD-101.7 miles 289°2021-02-24 14:32:01 WM6Y-51.8 miles 79°2021-02-26 13:43:48
N6HOY-91.8 miles 72°2021-02-26 18:28:44 FW27321.9 miles 78°2021-02-27 10:15:59
W1RUN B2.2 miles 313°2021-02-26 19:22:32 W1RUN-B2.2 miles 313°2021-02-26 19:22:42
N6CY-52.7 miles 213°2021-02-26 14:47:36 EW98702.8 miles 291°2021-02-27 10:15:59
EW83602.9 miles 98°2021-02-27 10:26:15 AK7MG3.2 miles 221°2021-02-18 00:11:18
EW98733.2 miles 97°2021-02-27 10:16:16 FW11283.2 miles 70°2021-02-27 10:20:20
N0CY-93.4 miles 217°2021-02-13 11:12:47 EW99513.4 miles 195°2021-02-27 10:15:59
Stations which heard KN6DKO-9 directly on radio –
callsign pkts first heard - EST last heard longest (tx => rx) longest at - EST
WB6WLV-11 3 2021-02-05 12:40:38 2021-02-07 21:09:35 DM13GG > DM12TV 65.5 miles 114° 2021-02-07 20:33:53
W6SCE-10 10 2021-02-05 14:26:06 2021-02-07 19:13:47 DM13DP > DM04QH 68.2 miles 314° 2021-02-05 14:26:06
N6EX-1 25 2021-02-05 14:37:16 2021-02-07 20:00:13 DM13CQ > DM04XE 37.1 miles 336° 2021-02-07 20:00:13
N6EX-5 2 2021-02-05 15:07:03 2021-02-07 19:16:46 DM04UE > DM03TT 25.7 miles 188° 2021-02-07 19:16:46
VEGAS 21 2021-02-05 19:43:09 2021-02-07 16:44:07 DM05TK > DM25FX 164.7 miles 77° 2021-02-06 14:27:43
N6EX-4 51 2021-02-05 13:58:00 2021-02-07 21:01:41 DM12JV > DM13ET 67.4 miles 340° 2021-02-07 21:01:41
W6HRO 4 2021-02-05 14:17:06 2021-02-07 19:49:09 DM13DM > DM13AU 27.1 miles 325° 2021-02-05 14:17:06
WA6LDQ-3 2 2021-02-05 17:08:47 2021-02-06 14:09:36 DM05WD > DM05RD 26.2 miles 275° 2021-02-05 17:08:47
K6ERN 2 2021-02-05 14:27:02 2021-02-07 18:55:54 DM13CQ > DM04HI 101.8 miles 298° 2021-02-05 14:27:02
KELLER 26 2021-02-05 14:53:21 2021-02-07 19:21:47 DM05TK > DM14LE 114.5 miles 139° 2021-02-06 15:22:40
KA6DAC-1 5 2021-02-05 12:41:24 2021-02-05 13:23:08 DM12JS > DM12MT 18.0 miles 73° 2021-02-05 12:41:24
KD6DCN-5 10 2021-02-05 12:45:45 2021-02-07 21:09:03 DM12JS > DM12MS 12.5 miles 88° 2021-02-07 21:09:03
XE2SI-10 6 2021-02-05 12:41:57 2021-02-07 21:01:40 DM12JV > DM12NL 34.0 miles 145° 2021-02-07 21:01:40
WB9COY-1 7 2021-02-05 13:28:40 2021-02-07 20:58:57 DM13FI > DM12IW 32.5 miles 151° 2021-02-07 20:26:35
N6SUN-10 1 2021-02-05 13:31:41 2021-02-05 13:31:41 DM12JX > DM13KB 11.6 miles 50° 2021-02-05 13:31:41
KF6NMZ-4 4 2021-02-05 15:29:05 2021-02-07 19:07:32 DM04RH > DM04SG 6.0 miles 151° 2021-02-07 19:02:28
KB6NIZ-1 46 2021-02-05 18:35:40 2021-02-07 17:08:40 DM05TK > DM15EO 40.7 miles 76° 2021-02-06 16:09:05
KB9ENS-10 1 2021-02-07 19:11:43 2021-02-07 19:11:43 DM04TF > DM03TV 23.7 miles 174° 2021-02-07 19:11:43
N6ROR-10 9 2021-02-05 13:20:08 2021-02-07 20:43:52 DM13GH > DM13QB 53.1 miles 107° 2021-02-05 13:58:56
WB9VXY-5 2 2021-02-06 19:07:58 2021-02-06 19:22:16 DM05TX > CM95PJ 135.8 miles 253° 2021-02-06 19:22:16
N6LXX-10 51 2021-02-05 14:48:46 2021-02-07 19:19:45 DM05TK > DM04UJ 73.6 miles 178° 2021-02-06 15:22:37
N6LXX-1 15 2021-02-05 19:44:23 2021-02-06 16:02:45 DM05TK > DM15RC 105.5 miles 103° 2021-02-06 16:02:45
N6LXX-4 91 2021-02-05 14:12:52 2021-02-07 20:04:41 DM05UP > DM14DI 94.4 miles 159° 2021-02-06 17:38:58
AVALN 8 2021-02-05 13:58:55 2021-02-07 20:30:19 DM13GH > DM03UI 48.4 miles 272° 2021-02-07 20:30:19
N6VYT-7 145 2021-02-05 18:37:13 2021-02-07 16:57:51 DM05WL > DM05RU 35.4 miles 319° 2021-02-05 18:37:13
WI6RE-1 10 2021-02-05 16:56:23 2021-02-07 17:37:14 DM04WX > DM15DL 43.0 miles 37° 2021-02-05 16:56:23
KM6JNB-2 5 2021-02-05 14:42:56 2021-02-07 19:43:08 DM13AU > DM03XV 4.9 miles 326° 2021-02-05 14:42:56
K6LOT-10 1 2021-02-05 15:20:39 2021-02-05 15:20:39 DM04UC > DM04TC 1.6 miles 303° 2021-02-05 15:20:39
KF6HKU-4 1 2021-02-07 20:08:55 2021-02-07 20:08:55 DM13DO > DM13DM 4.7 miles 195° 2021-02-07 20:08:55
AC6EE-3 9 2021-02-05 16:22:20 2021-02-07 18:30:29 DM04WO > DM05SB 36.4 miles 330° 2021-02-07 18:30:29
W3SN-10 13 2021-02-05 13:40:46 2021-02-07 21:09:34 DM12JS > DM13IJ 44.9 miles 355° 2021-02-07 21:09:34
W6TY 3 2021-02-07 20:46:51 2021-02-07 20:56:40 DM12JW > DM13IC 9.0 miles 353° 2021-02-07 20:56:40

Only position packets which were originated by the station are shown here. The range statistics show some extra long hops, because some digipeaters do not correctly add themselves to the digipeater path. Please check the raw packets.
About this site
This page shows real-time information collected from the Automatic Position Reporting System Internet network (APRS-IS). APRS is used by amateur (ham) radio operators to transmit real-time position information, weather data, telemetry and messages over the radio. A vehicle equipped with a GPS receiver, a VHF transmitter or HF transceiver and a small computer device called a tracker transmits it's location, speed and course in a small data packet, which is then received by a nearby iGate receiving site which forwards the packet on the Internet. Systems connected to the Internet can send information on the APRS-IS without a radio transmitter, or collect and display information transmitted anywhere in the world.
User guide · FAQ · Blog · Discussion group · Linking to aprs.fi · AIS sites · Service status · Database statistics · Advertising on aprs.fi · Technical details · API · Change log · Planned changes · Credits and thanks · Terms Of Service · iPhone/iPad APRS